Terminal Aerodrome Forecast
Issued by NWS Louisville, KY

Home | Current Version | Previous Version | Text Only | Print | Product List | Glossary On
Versions: 1 2 3 4 5 6 7 8 9 10 11 12 13 14 15 16 17 18
000
FTUS43 KLMK 160520
TAFLEX
TAF
KLEX 160520Z 1606/1706 21017G30KT P6SM BKN035 WS020/25055KT
     FM160800 24017G27KT 5SM SHRA OVC025 WS020/25050KT
     FM161000 30011G22KT 3SM SHRA BR OVC010
     FM161900 35014KT P6SM BKN025
     FM162200 35009KT P6SM BKN035
     FM170100 01007KT P6SM SCT035 BKN250=

USA.gov is the U.S. government's official web portal to all federal, state and local government web resources and services.